Walther Herwig III — DBFR — position and weather

sailwx.info

Track history (hours):
 
Tides and Currents Weather Stations Pressure Air Temp Water Temp Dewpoint Dewpoint Depression Visibility Wind Speed Wind Dir Waves Ship Positions

Oceanographic research ship Walther Herwig III (Germany)

Detailed information on ship capabilities available from University of Delaware's Ocean Information Center.

Last reported at 2019-Dec-10 22:55 UTC. Time now 2019-Dec-11 10:44 UTC.
Position N 53°01' W 005°38'.

Length 63.2 m; beam 14.8 m; draft 5.5 m.

Type: Fishing. MMSI: 211215500.

Date/timePositionNaut miles runAvg speedWind from/ knotsBaromVisibWave heightAir tempDewpointWater temp
2019-Dec-10 22:55N 53°01' W 005°38'1010.7
2019-Dec-10 21:57N 52°52' W 005°46'1812.2
2019-Dec-10 20:31N 52°37' W 006°01'1 0.6
2019-Dec-10 18:30N 52°36' W 006°03'2 1.0
2019-Dec-10 16:19N 52°38' W 006°02'13 7.4
2019-Dec-10 14:30N 52°25' W 005°60'3 1.7
2019-Dec-10 13:00N 52°28' W 005°59'1 1.2
2019-Dec-10 12:30N 52°28' W 005°59'1 1.0
2019-Dec-10 11:30N 52°29' W 005°59'0 0.4
2019-Dec-10 10:30N 52°30' W 005°59'0 0.1
2019-Dec-10 09:30N 52°30' W 005°59'0 0.4
2019-Dec-10 09:00N 52°29' W 005°59'2 0.7
2019-Dec-10 06:31N 52°28' W 005°60'2311.6
2019-Dec-10 04:30N 52°05' W 006°05'1312.8
2019-Dec-10 03:30N 51°52' W 006°12'136 2.8
2019-Dec-08 02:41N 50°02' W 004°06'3 5.2
2019-Dec-08 02:06N 50°02' W 004°02'3 5.0
2019-Dec-08 01:27N 50°03' W 003°57'8 5.2
2019-Dec-08 00:00N 50°05' W 003°45'3 6.3
2019-Dec-07 23:30N 50°05' W 003°40'14 7.2
2019-Dec-07 21:30N 50°08' W 003°18'8 7.9
2019-Dec-07 20:30N 50°10' W 003°06'15210.5
2019-Dec-07 06:00N 50°40' E 000°48'16 9.8
2019-Dec-07 04:21N 50°52' E 001°05'1812.6
2019-Dec-07 02:58N 51°03' E 001°27'2311.6
2019-Dec-07 01:00N 51°20' E 001°51'1110.8
2019-Dec-07 00:00N 51°30' E 001°59'510.0
2019-Dec-06 23:30N 51°34' E 002°05'  
2019-Dec-04 08:14N 54°21' E 007°27'6 1.1
2019-Dec-04 02:30N 54°16' E 007°34'0 0.2
2019-Dec-04 01:57N 54°16' E 007°34'1 0.3
2019-Dec-04 00:13N 54°17' E 007°35'19 0.6
2019-Dec-02 17:25N 54°03' E 007°56'411.1
2019-Dec-02 17:00N 53°58' E 007°54'8 8.1
2019-Dec-02 16:00N 53°51' E 008°01'28 9.3
2019-Dec-02 13:00N 53°32' E 008°35'0 0.1
2019-Dec-02 11:30N 53°32' E 008°35'0 0.0
2019-Dec-02 08:30N 53°31' E 008°35'0 0.0
2019-Dec-02 07:30N 53°31' E 008°35'0 0.0
2019-Dec-02 07:00N 53°31' E 008°35'0 0.0
2019-Dec-02 06:00N 53°31' E 008°35'0 0.0
2019-Dec-02 04:30N 53°31' E 008°35'0 0.0
2019-Dec-02 04:00N 53°31' E 008°35'0 0.0
2019-Dec-02 03:30N 53°31' E 008°35'0 0.0
2019-Dec-02 01:30N 53°31' E 008°35'0 0.0
2019-Dec-01 23:30N 53°31' E 008°35'0 0.0
2019-Dec-01 20:00N 53°31' E 008°35'0 0.0
2019-Dec-01 18:30N 53°31' E 008°35'0 0.0
2019-Dec-01 16:30N 53°31' E 008°35'0 0.0
2019-Dec-01 16:00N 53°31' E 008°35'0 0.0
2019-Dec-01 14:00N 53°31' E 008°35'0 0.0
2019-Dec-01 13:00N 53°31' E 008°35'0 0.0
2019-Dec-01 12:00N 53°31' E 008°35'0 0.0
2019-Dec-01 11:30N 53°31' E 008°35'0 0.0
2019-Dec-01 08:30N 53°31' E 008°35'0 0.0
2019-Dec-01 05:30N 53°31' E 008°35'0 0.0
2019-Dec-01 05:00N 53°31' E 008°35'0 0.0
2019-Dec-01 04:00N 53°31' E 008°35'0 0.0
2019-Dec-01 03:30N 53°31' E 008°35'0 0.0
2019-Dec-01 02:30N 53°31' E 008°35'0 0.0
2019-Dec-01 00:00N 53°31' E 008°35'0 0.0
2019-Nov-30 23:00N 53°31' E 008°35'  
Track history (hours):
 
Tides and Currents Weather Stations Pressure Air Temp Water Temp Dewpoint Dewpoint Depression Visibility Wind Speed Wind Dir Waves Ship Positions

Oceanographic research ship Walther Herwig III (Germany)

Detailed information on ship capabilities available from University of Delaware's Ocean Information Center.

Last reported at 2019-Dec-10 22:55 UTC. Time now 2019-Dec-11 10:44 UTC.
Position N 53°01' W 005°38'.

Length 63.2 m; beam 14.8 m; draft 5.5 m.

Type: Fishing. MMSI: 211215500.

Date/timePositionNaut miles runAvg speedWind from/ knotsBaromVisibWave heightAir tempDewpointWater temp
2019-Dec-10 22:55N 53°01' W 005°38'1010.7
2019-Dec-10 21:57N 52°52' W 005°46'1812.2
2019-Dec-10 20:31N 52°37' W 006°01'1 0.6
2019-Dec-10 18:30N 52°36' W 006°03'2 1.0
2019-Dec-10 16:19N 52°38' W 006°02'13 7.4
2019-Dec-10 14:30N 52°25' W 005°60'3 1.7
2019-Dec-10 13:00N 52°28' W 005°59'1 1.2
2019-Dec-10 12:30N 52°28' W 005°59'1 1.0
2019-Dec-10 11:30N 52°29' W 005°59'0 0.4
2019-Dec-10 10:30N 52°30' W 005°59'0 0.1
2019-Dec-10 09:30N 52°30' W 005°59'0 0.4
2019-Dec-10 09:00N 52°29' W 005°59'2 0.7
2019-Dec-10 06:31N 52°28' W 005°60'2311.6
2019-Dec-10 04:30N 52°05' W 006°05'1312.8
2019-Dec-10 03:30N 51°52' W 006°12'136 2.8
2019-Dec-08 02:41N 50°02' W 004°06'3 5.2
2019-Dec-08 02:06N 50°02' W 004°02'3 5.0
2019-Dec-08 01:27N 50°03' W 003°57'8 5.2
2019-Dec-08 00:00N 50°05' W 003°45'3 6.3
2019-Dec-07 23:30N 50°05' W 003°40'14 7.2
2019-Dec-07 21:30N 50°08' W 003°18'8 7.9
2019-Dec-07 20:30N 50°10' W 003°06'15210.5
2019-Dec-07 06:00N 50°40' E 000°48'16 9.8
2019-Dec-07 04:21N 50°52' E 001°05'1812.6
2019-Dec-07 02:58N 51°03' E 001°27'2311.6
2019-Dec-07 01:00N 51°20' E 001°51'1110.8
2019-Dec-07 00:00N 51°30' E 001°59'510.0
2019-Dec-06 23:30N 51°34' E 002°05'  
2019-Dec-04 08:14N 54°21' E 007°27'6 1.1
2019-Dec-04 02:30N 54°16' E 007°34'0 0.2
2019-Dec-04 01:57N 54°16' E 007°34'1 0.3
2019-Dec-04 00:13N 54°17' E 007°35'19 0.6
2019-Dec-02 17:25N 54°03' E 007°56'411.1
2019-Dec-02 17:00N 53°58' E 007°54'8 8.1
2019-Dec-02 16:00N 53°51' E 008°01'28 9.3
2019-Dec-02 13:00N 53°32' E 008°35'0 0.1
2019-Dec-02 11:30N 53°32' E 008°35'0 0.0
2019-Dec-02 08:30N 53°31' E 008°35'0 0.0
2019-Dec-02 07:30N 53°31' E 008°35'0 0.0
2019-Dec-02 07:00N 53°31' E 008°35'0 0.0
2019-Dec-02 06:00N 53°31' E 008°35'0 0.0
2019-Dec-02 04:30N 53°31' E 008°35'0 0.0
2019-Dec-02 04:00N 53°31' E 008°35'0 0.0
2019-Dec-02 03:30N 53°31' E 008°35'0 0.0
2019-Dec-02 01:30N 53°31' E 008°35'0 0.0
2019-Dec-01 23:30N 53°31' E 008°35'0 0.0
2019-Dec-01 20:00N 53°31' E 008°35'0 0.0
2019-Dec-01 18:30N 53°31' E 008°35'0 0.0
2019-Dec-01 16:30N 53°31' E 008°35'0 0.0
2019-Dec-01 16:00N 53°31' E 008°35'0 0.0
2019-Dec-01 14:00N 53°31' E 008°35'0 0.0
2019-Dec-01 13:00N 53°31' E 008°35'0 0.0
2019-Dec-01 12:00N 53°31' E 008°35'0 0.0
2019-Dec-01 11:30N 53°31' E 008°35'0 0.0
2019-Dec-01 08:30N 53°31' E 008°35'0 0.0
2019-Dec-01 05:30N 53°31' E 008°35'0 0.0
2019-Dec-01 05:00N 53°31' E 008°35'0 0.0
2019-Dec-01 04:00N 53°31' E 008°35'0 0.0
2019-Dec-01 03:30N 53°31' E 008°35'0 0.0
2019-Dec-01 02:30N 53°31' E 008°35'0 0.0
2019-Dec-01 00:00N 53°31' E 008°35'0 0.0
2019-Nov-30 23:00N 53°31' E 008°35'  

Dump ship's entire track history